Del Rio International Airport

Airport
ICAO code: 
KDRT
Summary
ICAO Region: 
NAM
Territory: 
Location: 
Del Rio, Texas,
Elevation: 
1002 ft
Coordinates: 
Aerial View: 
29° 22' 22.001" N, 100° 55' 32.999" W
Airport WX: 
Tropical Revolving Storm
Metar
Observation
KDRT 020953Z AUTO 10004KT 10SM CLR 16/13 A3012 RMK AO2 SLP193 T01560128
Station
Del Rio, Del Rio International Airport
Date/Time
2021-12-02 09:53:00
Wind direction
100°
Wind speed
04 kts
Lowest cloud amount
n/a
Temperature
15.6°C
Dew point
12.8°C
Humidity
83%
Weather condition
n/a

Description

Del Rio International Airport is a public use airport located 4 km northwest of the central business district of Del Rio, a city in Val Verde County, Texas.

Climatology

Hot, semi-arid/Steppe climate (Köppen climate classification BSh) - hot, sometimes extremely hot summers and mild to warm winters, with low annual precipitation.

Runways

Designator Length Width Surface Rops
13/31 1920 30 ASP Yes/Yes
Airport map: 
Aerial View: 

SKYbrary Partners:

Safety knowledge contributed by: